This is the latest recevied weather packets stored in our database for station/object S56WDN-10. If no packets are shown the sender has not sent any weather packets the latest 10 day(s).
| Time | Temp. | Humidity | Pressure | Rain* | Wind** | Luminosity | Snow |
|---|---|---|---|---|---|---|---|
| 1777426037 | 10.56° C | 86% | 1019.3 hPa | 0.51 mm | - | - | - |
| 1777425437 | 11.11° C | 86% | 1019.3 hPa | 0.51 mm | - | - | - |
| 1777424837 | 11.11° C | 86% | 1019.4 hPa | 0.51 mm | - | - | - |
| 1777424537 | 11.11° C | 86% | 1019.5 hPa | 1.02 mm | - | - | - |
| 1777423037 | 11.11° C | 86% | 1019.6 hPa | 1.52 mm | - | - | - |
| 1777422137 | 11.11° C | 85% | 1019.7 hPa | 3.05 mm | - | - | - |
| 1777410737 | 12.78° C | 83% | 1019.5 hPa | 1.02 mm | - | - | - |
| 1777410137 | 12.78° C | 82% | 1019.5 hPa | 1.52 mm | - | - | - |
| 1777409837 | 12.78° C | 81% | 1019.4 hPa | 1.52 mm | - | - | - |
| 1777408637 | 12.78° C | 79% | 1019.6 hPa | 1.52 mm | - | - | - |
| 1777407137 | 13.33° C | 74% | 1019.3 hPa | 1.02 mm | - | - | - |
| 1777406237 | 14.44° C | 69% | 1018.9 hPa | 0 mm | - | - | - |
| 1777405638 | 15° C | 68% | 1018.8 hPa | 0 mm | - | - | - |
| 1777405338 | 15° C | 67% | 1018.8 hPa | 0 mm | - | - | - |
| 1777405038 | 15.56° C | 65% | 1018.5 hPa | 0 mm | - | - | - |
| 1777404738 | 15.56° C | 65% | 1018.4 hPa | 0 mm | - | - | - |
| 1777404438 | 15.56° C | 63% | 1018.4 hPa | 0 mm | - | - | - |
| 1777404138 | 15.56° C | 62% | 1018.4 hPa | 0 mm | - | - | - |
| 1777403838 | 15.56° C | 61% | 1018.2 hPa | 0 mm | - | - | - |
| 1777403538 | 16.11° C | 60% | 1018.2 hPa | 0 mm | - | - | - |
| 1777403238 | 16.11° C | 59% | 1018.1 hPa | 0 mm | - | - | - |
| 1777402938 | 16.11° C | 58% | 1017.8 hPa | 0 mm | - | - | - |
| 1777402041 | 16.67° C | 54% | 1017.8 hPa | 0 mm | - | - | - |
| 1777401438 | 17.22° C | 51% | 1017.5 hPa | 0 mm | - | - | - |
| 1777400838 | 17.22° C | 50% | 1017.3 hPa | 0 mm | - | - | - |
* Rain latest hour (hover to see other rain measurements)
** Current wind speed in m/s (hover to see current wind gust speed)